createdAt,value
2019-04-03T00:03:04.673Z,11.07
2019-04-03T00:07:09.274Z,10.43
2019-04-03T00:11:13.892Z,10.50
2019-04-03T00:15:18.457Z,12.83
2019-04-03T00:19:23.033Z,13.37
2019-04-03T00:23:27.569Z,10.47
2019-04-03T00:27:32.281Z,11.00
2019-04-03T00:31:36.864Z,10.57
2019-04-03T00:35:41.463Z,12.03
2019-04-03T00:39:46.062Z,14.53
2019-04-03T00:43:50.631Z,13.35
2019-04-03T00:47:55.763Z,13.48
2019-04-03T00:52:00.827Z,13.40
2019-04-03T00:56:05.413Z,12.57
2019-04-03T01:00:14.217Z,13.75
2019-04-03T01:04:18.808Z,11.40
2019-04-03T01:08:23.347Z,12.50
2019-04-03T01:12:30.359Z,12.18
2019-04-03T01:16:34.225Z,12.80
2019-04-03T01:20:38.811Z,11.80
2019-04-03T01:24:43.393Z,11.00
2019-04-03T01:28:47.960Z,13.03
2019-04-03T01:32:52.549Z,11.93
2019-04-03T01:36:57.137Z,12.68
2019-04-03T01:41:01.737Z,12.35
2019-04-03T01:45:06.418Z,12.60
2019-04-03T01:49:10.946Z,13.03
2019-04-03T01:53:15.523Z,13.33
2019-04-03T01:57:20.151Z,11.48
2019-04-03T02:01:24.712Z,12.00
2019-04-03T02:05:29.334Z,13.25
2019-04-03T02:09:33.904Z,12.80
2019-04-03T02:13:38.480Z,11.70
2019-04-03T02:17:43.063Z,12.70
2019-04-03T02:21:47.634Z,12.47
2019-04-03T02:25:52.339Z,12.43
2019-04-03T02:29:56.967Z,12.40
2019-04-03T02:34:02.601Z,12.40
2019-04-03T02:38:08.108Z,12.55
2019-04-03T02:42:12.802Z,12.60
2019-04-03T02:46:17.382Z,12.80
2019-04-03T02:50:25.911Z,13.53
2019-04-03T02:54:34.440Z,12.73
2019-04-03T02:58:37.475Z,11.93
2019-04-03T03:02:44.081Z,12.55
2019-04-03T03:06:48.285Z,13.45
2019-04-03T03:10:53.617Z,13.28
2019-04-03T03:14:59.501Z,13.68
2019-04-03T03:19:04.213Z,15.48
2019-04-03T03:23:09.020Z,13.55
2019-04-03T03:27:13.713Z,9.47
2019-04-03T03:31:19.081Z,12.37
2019-04-03T03:35:31.088Z,13.90
2019-04-03T03:39:30.682Z,12.37
2019-04-03T03:43:38.309Z,12.58
2019-04-03T03:47:42.527Z,19.90
2019-04-03T03:51:49.216Z,14.95
2019-04-03T03:55:56.892Z,15.32
2019-04-03T04:00:00.276Z,14.73
2019-04-03T04:04:04.820Z,15.88
2019-04-03T04:08:10.832Z,13.23
2019-04-03T04:12:16.380Z,15.20
2019-04-03T04:16:21.223Z,16.75
2019-04-03T04:20:26.082Z,16.67
2019-04-03T04:24:30.844Z,15.28
2019-04-03T04:28:35.613Z,15.18
2019-04-03T04:32:40.194Z,14.30
2019-04-03T04:36:44.794Z,16.15
2019-04-03T04:40:49.465Z,14.60
2019-04-03T04:44:54.017Z,14.65
2019-04-03T04:48:58.592Z,15.03
2019-04-03T04:53:03.324Z,15.43
2019-04-03T04:57:09.220Z,16.10
2019-04-03T05:01:16.927Z,15.30
2019-04-03T05:05:20.388Z,16.12
2019-04-03T05:09:24.936Z,20.32
2019-04-03T05:13:29.559Z,18.65
2019-04-03T05:17:34.162Z,18.10
2019-04-03T05:21:38.780Z,17.37
2019-04-03T05:25:44.327Z,18.75
2019-04-03T05:29:48.947Z,17.87
2019-04-03T05:33:53.533Z,16.70
2019-04-03T05:37:58.172Z,19.23
2019-04-03T05:42:02.745Z,18.17
2019-04-03T05:46:07.336Z,21.55
2019-04-03T05:50:11.865Z,18.07
2019-04-03T05:54:16.453Z,18.50
2019-04-03T05:58:21.025Z,19.37
2019-04-03T06:02:25.627Z,18.32
2019-04-03T06:06:30.539Z,19.82
2019-04-03T06:10:37.430Z,19.27
2019-04-03T06:14:41.419Z,20.55
2019-04-03T06:18:47.510Z,21.47
2019-04-03T06:22:52.265Z,18.73
2019-04-03T06:26:58.034Z,18.85
2019-04-03T06:31:03.661Z,19.05
2019-04-03T06:35:08.477Z,19.95
2019-04-03T06:39:13.254Z,19.57
2019-04-03T06:43:17.932Z,18.10
2019-04-03T06:47:22.503Z,18.55
2019-04-03T06:51:27.089Z,18.07
2019-04-03T06:55:31.652Z,22.82
2019-04-03T06:59:37.714Z,17.85
2019-04-03T07:03:43.678Z,29.50
2019-04-03T07:07:48.249Z,20.27
2019-04-03T07:11:52.873Z,22.40
2019-04-03T07:15:57.448Z,18.43
2019-04-03T07:20:12.604Z,20.48
2019-04-03T07:24:08.248Z,18.25
2019-04-03T07:28:12.977Z,23.07
2019-04-03T07:32:17.588Z,18.62
2019-04-03T07:36:22.190Z,19.62
2019-04-03T07:40:26.713Z,19.25
2019-04-03T07:44:31.593Z,18.35
2019-04-03T07:48:37.935Z,20.60
2019-04-03T07:52:42.522Z,21.87
2019-04-03T07:56:47.103Z,20.88
2019-04-03T08:00:51.649Z,19.57
2019-04-03T08:04:59.348Z,19.27
2019-04-03T08:09:08.544Z,19.57
2019-04-03T08:13:08.748Z,17.87
2019-04-03T08:17:13.566Z,19.37
2019-04-03T08:21:18.212Z,20.27
2019-04-03T08:25:22.873Z,21.43
2019-04-03T08:29:27.488Z,24.40
2019-04-03T08:33:33.063Z,26.12
2019-04-03T08:37:40.582Z,24.92
2019-04-03T08:41:44.449Z,23.10
2019-04-03T08:45:49.113Z,23.02
2019-04-03T08:49:56.429Z,22.73
2019-04-03T08:53:59.922Z,23.62
2019-04-03T08:58:04.498Z,23.57
2019-04-03T09:02:12.561Z,27.35
2019-04-03T09:06:15.300Z,29.72
2019-04-03T09:10:20.286Z,26.77
2019-04-03T09:14:26.068Z,27.07
2019-04-03T09:18:30.975Z,25.88
2019-04-03T09:22:35.731Z,24.77
2019-04-03T09:26:40.304Z,18.55
2019-04-03T09:30:46.814Z,17.70
2019-04-03T09:34:51.106Z,20.03
2019-04-03T09:38:55.698Z,15.33
2019-04-03T09:43:00.268Z,16.17
2019-04-03T09:47:05.147Z,17.93
2019-04-03T09:51:09.897Z,18.80
2019-04-03T09:55:14.677Z,18.00
2019-04-03T09:59:19.588Z,20.37
2019-04-03T10:03:24.211Z,18.17
2019-04-03T10:07:31.188Z,16.30
2019-04-03T10:11:35.018Z,16.67
2019-04-03T10:15:39.616Z,15.53
2019-04-03T10:19:45.595Z,16.73
2019-04-03T10:23:50.436Z,17.10
2019-04-03T10:27:55.004Z,17.53
2019-04-03T10:31:59.551Z,18.87
2019-04-03T10:36:04.339Z,18.17
2019-04-03T10:40:10.266Z,18.07
2019-04-03T10:44:15.002Z,18.20
2019-04-03T10:48:19.636Z,19.43
2019-04-03T10:52:24.204Z,18.20
2019-04-03T10:56:30.769Z,13.63
2019-04-03T11:00:34.991Z,15.20
2019-04-03T11:04:39.603Z,20.37
2019-04-03T11:08:44.418Z,12.77
2019-04-03T11:12:49.037Z,14.30
2019-04-03T11:16:53.730Z,12.70
2019-04-03T11:20:58.380Z,13.70
2019-04-03T11:25:03.051Z,18.20
2019-04-03T11:29:10.002Z,12.57
2019-04-03T11:33:14.082Z,14.27
2019-04-03T11:37:18.683Z,14.27
2019-04-03T11:41:24.307Z,16.57
2019-04-03T11:45:29.330Z,11.70
2019-04-03T11:49:34.342Z,12.63
2019-04-03T11:53:39.068Z,14.63
2019-04-03T11:57:43.676Z,17.57
2019-04-03T12:01:48.571Z,14.43
2019-04-03T12:05:53.597Z,12.67
2019-04-03T12:09:58.392Z,11.63
2019-04-03T12:14:03.001Z,13.33
2019-04-03T12:18:07.569Z,12.30
2019-04-03T12:22:12.170Z,9.90
2019-04-03T12:26:19.686Z,10.47
2019-04-03T12:30:23.057Z,13.07
2019-04-03T12:34:27.666Z,10.80
2019-04-03T12:38:32.228Z,12.33
2019-04-03T12:42:36.802Z,14.03
2019-04-03T12:46:41.815Z,11.10
2019-04-03T12:50:46.872Z,12.37
2019-04-03T12:54:53.774Z,16.30
2019-04-03T12:58:58.118Z,16.07
2019-04-03T13:03:02.662Z,14.67
2019-04-03T13:07:07.414Z,11.13
2019-04-03T13:11:12.099Z,13.07
2019-04-03T13:15:17.148Z,12.30
2019-04-03T13:19:23.747Z,12.10
2019-04-03T13:23:31.289Z,13.97
2019-04-03T13:27:36.158Z,12.13
2019-04-03T13:31:40.795Z,17.67
2019-04-03T13:35:47.206Z,19.32
2019-04-03T13:39:52.009Z,16.20
2019-04-03T13:43:57.029Z,16.62
2019-04-03T13:48:01.661Z,16.60
2019-04-03T13:52:09.037Z,15.50
2019-04-03T13:56:13.326Z,16.87
2019-04-03T14:00:22.713Z,16.15
2019-04-03T14:04:24.905Z,15.80
2019-04-03T14:08:29.858Z,15.45
2019-04-03T14:12:36.605Z,14.43
2019-04-03T14:16:40.773Z,14.37
2019-04-03T14:20:45.759Z,13.65
2019-04-03T14:24:52.586Z,14.18
2019-04-03T14:28:56.774Z,14.00
2019-04-03T14:33:01.385Z,16.70
2019-04-03T14:37:06.270Z,14.43
2019-04-03T14:41:10.906Z,14.67
2019-04-03T14:45:15.938Z,13.70
2019-04-03T14:49:21.075Z,12.98
2019-04-03T14:53:25.871Z,14.80
2019-04-03T14:57:30.436Z,13.93
2019-04-03T15:01:35.166Z,14.65
2019-04-03T15:05:44.214Z,23.73
2019-04-03T15:09:46.913Z,15.07
2019-04-03T15:13:51.595Z,14.67
2019-04-03T15:17:56.285Z,13.83
2019-04-03T15:22:02.245Z,15.40
2019-04-03T15:26:07.933Z,12.73
2019-04-03T15:30:13.416Z,12.65
2019-04-03T15:34:18.453Z,13.00
2019-04-03T15:38:23.196Z,11.97
2019-04-03T15:42:28.208Z,11.70
2019-04-03T15:46:34.258Z,12.18
2019-04-03T15:50:39.161Z,11.63
2019-04-03T15:54:44.145Z,22.00
2019-04-03T15:58:51.995Z,12.05
2019-04-03T16:02:56.920Z,13.10
2019-04-03T16:07:02.062Z,13.05
2019-04-03T16:11:07.102Z,11.85
2019-04-03T16:15:12.104Z,12.65
2019-04-03T16:19:16.652Z,13.33
2019-04-03T16:23:22.550Z,12.53
2019-04-03T16:27:29.143Z,12.00
2019-04-03T16:31:33.793Z,13.35
2019-04-03T16:35:38.382Z,12.35
2019-04-03T16:39:43.466Z,13.50
2019-04-03T16:43:48.234Z,12.47
2019-04-03T16:47:52.882Z,12.82
2019-04-03T16:51:57.452Z,12.13
2019-04-03T16:56:02.494Z,12.60
2019-04-03T17:00:10.347Z,12.47
2019-04-03T17:04:24.981Z,13.03
2019-04-03T17:08:21.888Z,13.53
2019-04-03T17:12:26.529Z,13.98
2019-04-03T17:16:31.125Z,14.50
2019-04-03T17:20:35.681Z,14.73
2019-04-03T17:24:44.041Z,14.07
2019-04-03T17:28:46.670Z,15.85
2019-04-03T17:32:51.674Z,16.17
2019-04-03T17:36:56.779Z,14.90
2019-04-03T17:41:01.402Z,15.83
2019-04-03T17:45:06.917Z,16.27
2019-04-03T17:49:11.509Z,15.70
2019-04-03T17:53:16.110Z,15.58
2019-04-03T17:57:20.725Z,16.12
2019-04-03T18:01:25.293Z,15.27
2019-04-03T18:05:29.909Z,15.00
2019-04-03T18:09:36.219Z,16.17
2019-04-03T18:13:41.197Z,20.72
2019-04-03T18:17:45.777Z,16.45
2019-04-03T18:21:50.316Z,17.15
2019-04-03T18:25:54.897Z,15.50
2019-04-03T18:29:59.510Z,17.20
2019-04-03T18:34:04.124Z,17.48
2019-04-03T18:38:08.712Z,17.75
2019-04-03T18:42:13.262Z,16.65
2019-04-03T18:46:31.131Z,18.70
2019-04-03T18:50:24.216Z,18.40
2019-04-03T18:54:28.953Z,16.82
2019-04-03T18:58:33.531Z,17.87
2019-04-03T19:02:38.282Z,18.07
2019-04-03T19:06:44.509Z,19.62
2019-04-03T19:11:01.384Z,21.12
2019-04-03T19:14:55.573Z,19.62
2019-04-03T19:19:07.782Z,19.00
2019-04-03T19:23:07.098Z,18.87
2019-04-03T19:27:12.272Z,18.10
2019-04-03T19:51:38.048Z,21.37
2019-04-03T19:55:42.735Z,21.42
2019-04-03T19:59:47.361Z,22.45
2019-04-03T20:03:52.068Z,23.80
2019-04-03T20:07:58.553Z,22.70
2019-04-03T20:12:03.053Z,22.23
2019-04-03T20:16:07.737Z,24.27
2019-04-03T20:20:12.479Z,25.55
2019-04-03T20:24:17.089Z,25.63
2019-04-03T20:28:24.077Z,28.67
2019-04-03T20:32:28.057Z,25.10
2019-04-03T20:36:32.688Z,23.77
2019-04-03T20:40:39.727Z,20.43
2019-04-03T20:44:43.473Z,18.70
2019-04-03T20:48:48.093Z,16.30
2019-04-03T20:52:52.669Z,12.53
2019-04-03T20:56:58.474Z,13.43
2019-04-03T21:01:06.935Z,13.70
2019-04-03T21:05:09.923Z,13.45
2019-04-03T21:09:14.545Z,11.50
2019-04-03T21:13:19.230Z,10.98
2019-04-03T21:17:24.117Z,11.18
2019-04-03T21:21:29.737Z,11.78
2019-04-03T21:25:36.090Z,12.10
2019-04-03T21:29:41.273Z,12.45
2019-04-03T21:33:45.894Z,13.25
2019-04-03T21:37:50.517Z,15.38
2019-04-03T21:41:55.902Z,12.93
2019-04-03T21:46:01.287Z,14.43
2019-04-03T21:50:07.273Z,13.65
2019-04-03T21:54:11.855Z,14.20
2019-04-03T21:58:16.433Z,14.20
2019-04-03T22:02:20.988Z,14.33
2019-04-03T22:06:27.525Z,14.23
2019-04-03T22:10:33.001Z,12.60
2019-04-03T22:14:38.069Z,16.77
2019-04-03T22:18:43.062Z,15.38
2019-04-03T22:22:47.607Z,14.38
2019-04-03T22:26:52.192Z,14.83
2019-04-03T22:30:56.792Z,13.70
2019-04-03T22:35:01.628Z,15.13
2019-04-03T22:39:08.046Z,16.27
2019-04-03T22:43:15.362Z,15.53
2019-04-03T22:47:19.656Z,16.23
2019-04-03T22:51:24.223Z,16.07
2019-04-03T22:55:28.826Z,16.37
2019-04-03T22:59:33.417Z,17.57
2019-04-03T23:03:37.916Z,17.73
2019-04-03T23:07:42.551Z,16.27
2019-04-03T23:11:47.172Z,16.52
2019-04-03T23:15:51.868Z,17.98
2019-04-03T23:19:56.441Z,16.93
2019-04-03T23:24:01.093Z,17.00
2019-04-03T23:28:05.737Z,16.93
2019-04-03T23:32:10.373Z,17.32
2019-04-03T23:36:14.973Z,19.40
2019-04-03T23:40:19.510Z,21.07
2019-04-03T23:44:24.980Z,20.43
2019-04-03T23:48:29.570Z,22.40
2019-04-03T23:52:34.177Z,21.55
2019-04-03T23:56:38.925Z,20.57
